Steilacoom, Washington
Current Conditions -  °F | °C
As of 2:05 AM on Sunday 26 Oct 2014 (Local Time) from KTCM Reporting Station
Broken Clouds Broken Clouds  
Wind Chill: 10°   Ceiling: 4000
Heat Index: 10°   Visibility: 9mi
Dew Point:   Wind: 12mph
Humidity: 87%   Direction: 240°WSW
Pressure: 29.86"   Gusts: NA
Location:  47.17°N, 122.59°W
Report Text: KTCM 260905Z AUTO 24010KT 9SM FEW004 BKN040 BKN055 10/08 A2986 RMK AO2
Loading
Personal Weather Stations






























Interactive Weather Map
Tropical Storm Tracking
New forecast layout! Learn more

10-Day Weather Forecast

Advertisements
Track Severe Weather on mobile